CDT,Max TemperatureF,Mean TemperatureF,Min TemperatureF,Max Dew PointF,MeanDew PointF,Min DewpointF,Max Humidity, Mean Humidity, Min Humidity, Max Sea Level PressureIn, Mean Sea Level PressureIn, Min Sea Level PressureIn, Max VisibilityMiles, Mean VisibilityMiles, Min VisibilityMiles, Max Wind SpeedMPH, Mean Wind SpeedMPH, Max Gust SpeedMPH,PrecipitationIn, CloudCover, Events, WindDirDegrees
2013-10-1,82,68,53,61,57,48,94,72,45,30.00,29.93,29.90,10,10,7,18,8,25,0.00,1,,213
2013-10-2,82,68,55,61,54,45,88,64,30,30.11,30.03,29.96,10,10,5,16,8,20,0.00,2,,94
2013-10-3,78,71,64,68,64,61,94,82,61,29.95,29.90,29.83,10,8,3,16,8,21,0.15,4,Thunderstorm,170
2013-10-4,75,68,62,70,64,61,94,85,73,30.03,29.93,29.87,10,8,3,28,9,34,0.85,4,Thunderstorm,121
2013-10-5,73,62,50,68,60,39,94,78,59,29.91,29.86,29.80,10,10,7,20,8,29,0.03,4,Thunderstorm,209
2013-10-6,51,45,39,41,37,34,93,74,50,29.85,29.79,29.75,10,10,10,14,6,23,0.00,3,,238
2013-10-7,73,56,39,45,42,36,93,66,29,30.10,29.97,29.83,10,10,6,17,7,23,0.00,1,,275
2013-10-8,75,58,41,48,44,37,93,62,34,30.19,30.14,30.10,10,10,8,15,6,20,0.00,0,,167
2013-10-9,73,58,44,48,43,39,87,62,31,30.23,30.18,30.13,10,10,10,12,7,18,0.00,0,,137
2013-10-10,75,58,41,54,46,37,87,69,44,30.19,30.11,30.03,10,10,7,13,7,21,0.00,0,,117
2013-10-11,75,63,51,57,52,46,88,68,44,30.05,29.98,29.89,10,10,5,24,9,30,0.00,1,,146
2013-10-12,69,56,42,55,45,36,82,59,31,30.23,30.04,29.91,10,10,10,18,9,25,0.00,2,,259
2013-10-13,62,48,33,39,33,30,87,62,30,30.45,30.38,30.23,10,10,10,12,5,16,0.00,0,,335
2013-10-14,64,48,33,43,37,28,93,66,39,30.43,30.29,30.08,10,10,6,20,9,24,0.00,0,,97
2013-10-15,64,56,48,57,45,37,94,70,49,30.07,29.90,29.81,10,9,2,21,13,25,0.04,5,,203
2013-10-16,51,48,46,45,42,39,93,76,66,29.99,29.94,29.88,10,10,3,16,13,26,0.00,8,,269
2013-10-17,59,50,41,43,39,32,87,71,36,29.97,29.90,29.85,10,9,2,16,6,22,0.01,4,,257
2013-10-18,51,44,37,39,34,30,87,68,47,30.01,29.96,29.87,10,10,10,18,9,23,0.00,6,,272
2013-10-19,53,42,32,37,32,27,87,71,38,29.97,29.87,29.80,10,10,10,23,7,30,0.00,4,,245
2013-10-20,59,44,30,45,37,27,93,73,48,29.87,29.82,29.74,10,10,2,14,6,18,0.00,5,,224
2013-10-21,48,37,26,39,25,19,80,59,34,30.02,29.98,29.85,10,10,10,23,12,32,0.00,3,,290
2013-10-22,37,30,24,34,29,19,93,85,74,30.03,29.99,29.93,10,8,2,12,5,,0.08,6,,4
2013-10-23,42,35,28,32,27,23,93,71,46,30.08,30.05,30.00,10,10,10,17,8,20,0.00,7,,296
2013-10-24,41,34,24,32,21,19,81,59,45,30.37,30.24,30.09,10,10,10,17,9,29,0.00,6,,308
2013-10-25,53,37,21,30,22,18,93,59,30,30.43,30.30,30.07,10,10,10,21,8,30,0.00,1,,242
2013-10-26,53,42,30,32,26,21,80,51,33,30.14,30.02,29.92,10,10,10,22,14,33,0.00,1,,288
2013-10-27,55,40,24,30,26,19,86,62,33,30.12,30.05,29.96,10,10,3,16,7,20,0.00,0,,236
2013-10-28,55,42,28,39,32,25,87,71,54,30.37,30.24,30.06,10,10,10,22,10,25,0.00,0,,74
2013-10-29,57,46,35,41,35,28,87,68,47,30.36,30.25,30.12,10,10,10,14,11,18,0.00,3,,103
2013-10-30,59,50,42,55,49,37,94,88,71,30.11,29.97,29.75,10,4,0,21,9,28,0.96,7,,121
2013-10-31,62,52,42,59,50,37,94,85,81,29.73,29.51,29.37,10,8,2,18,13,24,0.25,8,,257